Airfield :
LOGIN :

Register | Disclaimer

   EN    FR    IT 

 










Legend :    VFR   Marginal VFR   IFR   Intensive IFR   Very Intensive IFR
Visi :
Ceiling :
>= 8 km
>= 3000ft
5 to 8 km
1000 to 3000 ft
1500m to 5 km
500 to 1000 ft
800 to 1500m
200 to 500 ft
< 800m
< 200 ft
Symbols :   Thunderstorms  Fog  Heavy snow  Heavy precipitations  Wind > 20 kt
SIGMETs :     Misc.  Thunderstorms  Icing  Turbulence  Mountain Waves  Volcanic Ashes







- Airport Elevation : 1115 ft
- IATA code : GRZ


LOWG - Graz

CURRENT METAR :
  • 290450Z VRB01KT 0250 R17/0300N R35/0350N FG BKN002 00/00 Q1017 NOSIG

EXPIRED METARs :
  • 290420Z VRB01KT 0250 R17/0300N R35/0350N FG BKN001 00/00 Q1017 NOSIG
  • 290350Z VRB02KT 0300 R17/0250D R35/0400N FG BKN002 00/00 Q1017 NOSIG
  • 290320Z AUTO 02003KT 340V040 0450 R17/0375N R35/0500N FG FEW000 BKN001 00/00 Q1016
  • 290250Z AUTO 36003KT 330V040 0300 R17/0375N R35/0350N FG FEW000 BKN001 01/01 Q1016
  • 290220Z AUTO VRB02KT 0300 R17/0350N R35/0350N FG BKN001 01/01 Q1016

TAF AMD TAF LOWG
Valid from the 29 at 02:00 until the 30 at 00:00 UTC


290158Z 2902/2924 VRB02KT CAVOK TX15/2915Z TN02/2903Z
TEMPO 2902/2906 0200 BCFG SCT001
PROB30
TEMPO 2902/2906 BKN001
TEMPO 2907/2918 34006KT 9999 SCT050
No reported NOTAMs for that airfield.



MET'MAP, your aeronautical weather chart ! - Copyright ORBIFLY December 2007 - Disclaimer

ORBIFLY MET'MAP TEAM :

Programming & Development : Alexandra Zaïnal
Concept & Development : Baudouin d'Aumeries
Co-Development & Prog : Marc-Olivier Méhu
Technical & hardware support : Manuel Goepfert

Contact : metmap@orbifly.com




SOURCES & CREDITS :

   NOAA